createdAt,value
2022-12-25T00:00:25.776Z,1.70
2022-12-25T00:02:53.972Z,1.87
2022-12-25T00:05:22.128Z,2.50
2022-12-25T00:07:50.275Z,2.10
2022-12-25T00:10:18.562Z,2.17
2022-12-25T00:12:47.854Z,2.13
2022-12-25T00:15:15.829Z,2.50
2022-12-25T00:17:44.979Z,2.13
2022-12-25T00:20:15.615Z,2.40
2022-12-25T00:22:43.716Z,1.90
2022-12-25T00:25:12.081Z,1.70
2022-12-25T00:27:40.088Z,2.07
2022-12-25T00:30:12.881Z,1.60
2022-12-25T00:32:42.113Z,2.00
2022-12-25T00:35:10.858Z,2.40
2022-12-25T00:37:38.886Z,2.23
2022-12-25T00:40:08.882Z,2.20
2022-12-25T00:42:36.928Z,2.17
2022-12-25T00:45:06.765Z,2.53
2022-12-25T00:47:36.133Z,2.07
2022-12-25T00:50:04.751Z,2.33
2022-12-25T00:52:33.419Z,1.93
2022-12-25T00:55:01.429Z,2.00
2022-12-25T00:57:29.420Z,2.30
2022-12-25T00:59:57.408Z,2.73
2022-12-25T01:02:25.810Z,2.93
2022-12-25T01:04:57.773Z,2.47
2022-12-25T01:07:27.657Z,2.70
2022-12-25T01:10:13.425Z,2.40
2022-12-25T01:12:43.914Z,3.30
2022-12-25T01:15:13.323Z,3.73
2022-12-25T01:17:42.256Z,3.90
2022-12-25T01:20:14.077Z,3.53
2022-12-25T01:22:42.873Z,3.37
2022-12-25T01:25:12.306Z,3.10
2022-12-25T01:27:41.736Z,3.90
2022-12-25T01:30:11.728Z,3.40
2022-12-25T01:32:39.889Z,4.20
2022-12-25T01:35:08.831Z,5.47
2022-12-25T01:37:38.233Z,4.10
2022-12-25T01:40:08.230Z,4.07
2022-12-25T01:42:36.412Z,4.20
2022-12-25T01:45:34.129Z,3.63
2022-12-25T01:48:07.844Z,4.17
2022-12-25T01:50:39.068Z,4.37
2022-12-25T01:53:09.197Z,5.00
2022-12-25T01:55:38.569Z,4.20
2022-12-25T01:58:06.720Z,4.40
2022-12-25T02:00:34.774Z,4.60
2022-12-25T02:03:03.120Z,5.30
2022-12-25T02:05:33.367Z,4.60
2022-12-25T02:08:07.605Z,3.90
2022-12-25T02:10:38.745Z,4.30
2022-12-25T02:13:07.943Z,4.77
2022-12-25T02:15:45.080Z,4.93
2022-12-25T02:18:22.811Z,6.10
2022-12-25T02:21:19.886Z,4.80
2022-12-25T02:24:33.702Z,4.60
2022-12-25T02:27:14.850Z,4.87
2022-12-25T02:29:51.763Z,4.90
2022-12-25T02:32:27.167Z,4.90
2022-12-25T02:35:01.980Z,6.83
2022-12-25T02:37:37.510Z,5.77
2022-12-25T02:40:15.045Z,4.80
2022-12-25T02:43:08.906Z,5.00
2022-12-25T02:46:04.608Z,4.93
2022-12-25T02:48:54.322Z,4.93
2022-12-25T02:51:43.784Z,5.40
2022-12-25T02:54:29.737Z,4.67
2022-12-25T02:57:17.236Z,4.67
2022-12-25T03:00:05.922Z,5.30
2022-12-25T03:02:53.546Z,4.50
2022-12-25T03:05:42.955Z,4.67
2022-12-25T03:08:15.832Z,5.30
2022-12-25T03:11:10.779Z,4.80
2022-12-25T03:13:42.513Z,4.27
2022-12-25T03:16:28.637Z,4.10
2022-12-25T03:18:59.370Z,5.30
2022-12-25T03:21:45.379Z,4.17
2022-12-25T03:24:30.969Z,3.63
2022-12-25T03:26:59.111Z,4.40
2022-12-25T03:29:49.333Z,4.40
2022-12-25T03:32:29.025Z,4.63
2022-12-25T03:35:24.046Z,5.53
2022-12-25T03:38:32.190Z,5.20
2022-12-25T03:41:27.671Z,4.83
2022-12-25T03:44:20.376Z,4.90
2022-12-25T03:47:13.438Z,4.80
2022-12-25T03:50:05.568Z,5.53
2022-12-25T03:52:54.020Z,4.53
2022-12-25T03:55:40.982Z,5.13
2022-12-25T03:58:36.953Z,5.10
2022-12-25T04:01:22.485Z,4.30
2022-12-25T04:04:08.485Z,4.80
2022-12-25T04:06:53.856Z,4.70
2022-12-25T04:09:41.402Z,4.30
2022-12-25T04:12:26.992Z,4.00
2022-12-25T04:15:12.469Z,4.10
2022-12-25T04:17:58.496Z,3.70
2022-12-25T04:20:43.960Z,4.67
2022-12-25T04:23:29.832Z,4.73
2022-12-25T04:26:18.238Z,4.60
2022-12-25T04:29:05.295Z,4.70
2022-12-25T04:31:50.720Z,5.13
2022-12-25T04:34:35.389Z,5.17
2022-12-25T04:37:03.408Z,4.33
2022-12-25T04:39:31.388Z,4.97
2022-12-25T04:42:00.992Z,5.00
2022-12-25T04:44:29.086Z,4.53
2022-12-25T04:46:57.216Z,5.07
2022-12-25T04:49:25.303Z,5.47
2022-12-25T04:51:53.301Z,5.43
2022-12-25T04:54:21.285Z,4.50
2022-12-25T04:56:49.301Z,5.10
2022-12-25T04:59:18.630Z,5.47
2022-12-25T05:01:46.742Z,5.47
2022-12-25T05:04:14.846Z,5.20
2022-12-25T05:06:42.825Z,4.80
2022-12-25T05:09:11.411Z,6.70
2022-12-25T05:11:39.491Z,4.63
2022-12-25T05:14:07.489Z,5.10
2022-12-25T05:16:36.901Z,4.57
2022-12-25T05:19:04.946Z,6.50
2022-12-25T05:21:32.945Z,4.53
2022-12-25T05:24:00.975Z,4.53
2022-12-25T05:26:29.284Z,4.67
2022-12-25T05:28:57.323Z,6.40
2022-12-25T05:31:25.478Z,5.60
2022-12-25T05:33:54.836Z,7.30
2022-12-25T05:36:22.803Z,5.50
2022-12-25T05:38:51.656Z,5.57
2022-12-25T05:41:19.945Z,5.40
2022-12-25T05:43:47.956Z,6.73
2022-12-25T05:46:16.038Z,7.10
2022-12-25T05:48:44.051Z,7.33
2022-12-25T05:51:15.827Z,6.60
2022-12-25T05:53:44.853Z,7.33
2022-12-25T05:56:13.053Z,6.80
2022-12-25T05:58:41.752Z,5.80
2022-12-25T06:01:16.492Z,5.87
2022-12-25T06:03:44.679Z,6.80
2022-12-25T06:06:14.713Z,5.60
2022-12-25T06:08:43.344Z,6.27
2022-12-25T06:11:13.921Z,6.77
2022-12-25T06:13:42.421Z,5.93
2022-12-25T06:16:12.748Z,5.90
2022-12-25T06:18:44.904Z,7.30
2022-12-25T06:21:15.983Z,8.17
2022-12-25T06:23:44.668Z,7.50
2022-12-25T06:26:15.294Z,6.73
2022-12-25T06:28:43.461Z,7.10
2022-12-25T06:31:14.921Z,7.07
2022-12-25T06:33:43.553Z,7.37
2022-12-25T06:36:15.957Z,7.00
2022-12-25T06:38:44.739Z,7.80
2022-12-25T06:41:15.690Z,6.93
2022-12-25T06:43:43.970Z,6.40
2022-12-25T06:46:13.704Z,7.07
2022-12-25T06:48:47.838Z,6.50
2022-12-25T06:51:17.677Z,6.67
2022-12-25T06:53:46.039Z,6.27
2022-12-25T06:56:16.545Z,7.00
2022-12-25T06:58:45.457Z,6.73
2022-12-25T07:01:20.281Z,5.80
2022-12-25T07:03:50.793Z,6.50
2022-12-25T07:06:20.245Z,5.73
2022-12-25T07:08:48.528Z,6.50
2022-12-25T07:11:16.581Z,6.30
2022-12-25T07:13:44.600Z,6.60
2022-12-25T07:16:14.071Z,6.17
2022-12-25T07:18:42.603Z,6.97
2022-12-25T07:21:12.785Z,7.53
2022-12-25T07:23:42.896Z,7.27
2022-12-25T07:26:12.475Z,7.90
2022-12-25T07:28:41.010Z,6.83
2022-12-25T07:31:13.203Z,7.17
2022-12-25T07:33:42.034Z,7.80
2022-12-25T07:36:12.908Z,8.93
2022-12-25T07:38:43.501Z,8.77
2022-12-25T07:41:12.804Z,8.43
2022-12-25T07:43:41.060Z,7.30
2022-12-25T07:46:09.662Z,7.67
2022-12-25T07:48:38.009Z,8.63
2022-12-25T07:51:09.318Z,7.90
2022-12-25T07:53:38.268Z,8.73
2022-12-25T07:56:11.089Z,7.77
2022-12-25T07:58:39.633Z,8.67
2022-12-25T08:01:11.761Z,7.53
2022-12-25T08:03:40.576Z,7.97
2022-12-25T08:06:11.414Z,7.40
2022-12-25T08:08:40.154Z,8.07
2022-12-25T08:11:10.544Z,8.10
2022-12-25T08:13:38.981Z,7.23
2022-12-25T08:16:09.904Z,7.80
2022-12-25T08:18:38.936Z,8.03
2022-12-25T08:21:09.960Z,8.20
2022-12-25T08:23:40.241Z,7.67
2022-12-25T08:26:12.428Z,7.13
2022-12-25T08:28:41.089Z,7.40
2022-12-25T08:31:11.968Z,7.30
2022-12-25T08:33:40.280Z,6.73
2022-12-25T08:36:11.098Z,6.97
2022-12-25T08:38:40.754Z,7.90
2022-12-25T08:41:11.381Z,6.63
2022-12-25T08:43:39.866Z,6.50
2022-12-25T08:46:08.978Z,7.27
2022-12-25T08:48:37.423Z,7.33
2022-12-25T08:51:06.731Z,7.50
2022-12-25T08:53:34.823Z,6.53
2022-12-25T08:56:05.042Z,6.50
2022-12-25T08:58:34.672Z,12.30
2022-12-25T09:01:03.011Z,21.73
2022-12-25T09:03:32.390Z,12.97
2022-12-25T09:06:05.385Z,8.00
2022-12-25T09:08:34.121Z,6.97
2022-12-25T09:11:03.721Z,8.97
2022-12-25T09:13:32.192Z,7.83
2022-12-25T09:16:07.168Z,6.87
2022-12-25T09:18:35.631Z,7.10
2022-12-25T09:21:07.362Z,7.20
2022-12-25T09:23:35.882Z,6.67
2022-12-25T09:26:06.640Z,7.60
2022-12-25T09:28:35.065Z,7.80
2022-12-25T09:31:04.989Z,7.70
2022-12-25T09:33:33.380Z,7.10
2022-12-25T09:36:03.639Z,7.17
2022-12-25T09:38:32.251Z,7.97
2022-12-25T09:41:02.983Z,7.00
2022-12-25T09:43:35.171Z,6.57
2022-12-25T09:46:06.885Z,8.03
2022-12-25T09:48:36.845Z,8.10
2022-12-25T09:51:11.311Z,7.53
2022-12-25T09:53:44.649Z,7.50
2022-12-25T09:56:18.335Z,6.90
2022-12-25T09:58:46.957Z,7.47
2022-12-25T10:01:28.360Z,9.83
2022-12-25T10:04:26.517Z,8.87
2022-12-25T10:07:11.531Z,6.90
2022-12-25T10:09:54.888Z,7.77
2022-12-25T10:12:40.269Z,6.80
2022-12-25T10:15:30.859Z,7.50
2022-12-25T10:18:29.231Z,6.90
2022-12-25T10:21:00.407Z,7.03
2022-12-25T10:23:34.020Z,5.90
2022-12-25T10:26:03.378Z,5.50
2022-12-25T10:28:37.180Z,5.43
2022-12-25T10:31:22.211Z,6.10
2022-12-25T10:33:53.915Z,5.70
2022-12-25T10:36:25.010Z,5.67
2022-12-25T10:38:54.442Z,4.33
2022-12-25T10:42:03.194Z,5.00
2022-12-25T10:44:33.176Z,4.90
2022-12-25T10:47:03.259Z,5.93
2022-12-25T10:49:36.520Z,4.77
2022-12-25T10:52:17.799Z,5.43
2022-12-25T10:54:46.606Z,5.93
2022-12-25T10:57:20.354Z,5.63
2022-12-25T10:59:51.904Z,4.80
2022-12-25T11:02:26.778Z,4.23
2022-12-25T11:05:04.632Z,4.50
2022-12-25T11:07:35.053Z,4.30
2022-12-25T11:10:08.002Z,4.40
2022-12-25T11:12:38.896Z,4.10
2022-12-25T11:15:33.726Z,4.43
2022-12-25T11:18:02.168Z,3.50
2022-12-25T11:20:33.238Z,3.50
2022-12-25T11:23:01.741Z,4.87
2022-12-25T11:25:30.203Z,4.17
2022-12-25T11:28:02.541Z,5.77
2022-12-25T11:30:32.665Z,4.50
2022-12-25T11:33:06.062Z,4.37
2022-12-25T11:35:47.889Z,5.30
2022-12-25T11:38:16.143Z,4.53
2022-12-25T11:40:49.270Z,6.40
2022-12-25T11:43:26.049Z,5.17
2022-12-25T11:46:00.326Z,4.63
2022-12-25T11:48:36.357Z,3.70
2022-12-25T11:51:09.450Z,4.70
2022-12-25T11:53:45.288Z,4.10
2022-12-25T11:56:20.118Z,3.93
2022-12-25T11:58:51.400Z,3.83
2022-12-25T12:01:31.682Z,3.90
2022-12-25T12:04:02.148Z,5.00
2022-12-25T12:06:47.453Z,4.57
2022-12-25T12:09:31.570Z,5.27
2022-12-25T12:12:08.820Z,5.83
2022-12-25T12:14:50.526Z,3.90
2022-12-25T12:17:19.774Z,4.10
2022-12-25T12:19:48.146Z,4.23
2022-12-25T12:22:25.663Z,4.17
2022-12-25T12:25:02.150Z,4.27
2022-12-25T12:27:39.578Z,4.17
2022-12-25T12:30:23.553Z,4.50
2022-12-25T12:32:54.236Z,4.70
2022-12-25T12:35:26.960Z,4.20
2022-12-25T12:38:03.251Z,4.67
2022-12-25T12:40:35.482Z,5.00
2022-12-25T12:43:04.537Z,4.40
2022-12-25T12:45:36.661Z,5.20
2022-12-25T12:48:16.323Z,4.30
2022-12-25T12:50:44.801Z,4.20
2022-12-25T12:53:33.559Z,4.23
2022-12-25T12:56:14.050Z,4.40
2022-12-25T12:58:48.476Z,4.57
2022-12-25T13:01:40.317Z,4.50
2022-12-25T13:04:33.880Z,4.40
2022-12-25T13:07:13.650Z,4.00
2022-12-25T13:10:05.399Z,4.40
2022-12-25T13:12:33.964Z,4.37
2022-12-25T13:15:02.282Z,4.33
2022-12-25T13:17:30.714Z,4.23
2022-12-25T13:20:02.262Z,3.80
2022-12-25T13:22:34.376Z,5.37
2022-12-25T13:25:08.805Z,4.83
2022-12-25T13:27:37.242Z,4.50
2022-12-25T13:30:15.273Z,4.77
2022-12-25T13:32:46.969Z,4.70
2022-12-25T13:35:17.918Z,4.13
2022-12-25T13:37:46.640Z,5.77
2022-12-25T13:40:25.101Z,11.83
2022-12-25T13:42:58.582Z,9.00
2022-12-25T13:45:35.033Z,9.10
2022-12-25T13:48:16.189Z,5.80
2022-12-25T13:50:48.378Z,4.60
2022-12-25T13:53:18.876Z,4.50
2022-12-25T13:55:54.374Z,4.30
2022-12-25T13:58:27.755Z,5.67
2022-12-25T14:00:59.024Z,5.60
2022-12-25T14:03:34.967Z,4.80
2022-12-25T14:06:06.229Z,5.70
2022-12-25T14:08:36.984Z,4.13
2022-12-25T14:11:08.679Z,4.97
2022-12-25T14:13:41.214Z,4.63
2022-12-25T14:16:10.376Z,5.50
2022-12-25T14:18:38.727Z,4.50
2022-12-25T14:21:09.281Z,3.80
2022-12-25T14:23:46.848Z,4.67
2022-12-25T14:26:22.160Z,5.37
2022-12-25T14:28:52.086Z,5.87
2022-12-25T14:31:21.209Z,4.67
2022-12-25T14:33:51.497Z,5.00
2022-12-25T14:36:23.224Z,4.13
2022-12-25T14:38:58.756Z,4.23
2022-12-25T14:41:36.986Z,4.07
2022-12-25T14:44:26.120Z,5.10
2022-12-25T14:47:06.563Z,4.10
2022-12-25T14:49:34.784Z,3.90
2022-12-25T14:52:11.599Z,4.47
2022-12-25T14:54:39.921Z,3.07
2022-12-25T14:57:19.725Z,3.50
2022-12-25T14:59:47.938Z,4.60
2022-12-25T15:02:20.307Z,3.27
2022-12-25T15:04:48.539Z,3.67
2022-12-25T15:07:31.829Z,3.60
2022-12-25T15:10:36.457Z,3.83
2022-12-25T15:12:49.533Z,3.50
2022-12-25T15:15:17.698Z,4.70
2022-12-25T15:17:45.791Z,3.73
2022-12-25T15:20:15.052Z,3.60
2022-12-25T15:23:10.269Z,2.87
2022-12-25T15:25:32.245Z,3.33
2022-12-25T15:28:02.023Z,3.37
2022-12-25T15:30:30.412Z,3.67
2022-12-25T15:32:59.936Z,3.03
2022-12-25T15:35:30.887Z,3.47
2022-12-25T15:37:59.837Z,2.90
2022-12-25T15:40:28.961Z,3.00
2022-12-25T15:42:57.884Z,4.80
2022-12-25T15:45:30.408Z,3.77
2022-12-25T15:47:59.157Z,3.87
2022-12-25T15:50:27.653Z,4.10
2022-12-25T15:52:55.903Z,4.13
2022-12-25T15:55:24.669Z,3.77
2022-12-25T15:57:55.023Z,3.50
2022-12-25T16:00:26.344Z,3.63
2022-12-25T16:02:58.079Z,3.23
2022-12-25T16:05:28.006Z,4.40
2022-12-25T16:07:56.447Z,4.20
2022-12-25T16:10:25.180Z,7.23
2022-12-25T16:12:53.410Z,6.30
2022-12-25T16:15:21.730Z,8.80
2022-12-25T16:17:51.792Z,4.53
2022-12-25T16:20:21.422Z,9.83
2022-12-25T16:22:49.992Z,10.63
2022-12-25T16:25:20.328Z,5.77
2022-12-25T16:27:49.140Z,10.20
2022-12-25T16:30:19.567Z,7.40
2022-12-25T16:32:51.712Z,6.87
2022-12-25T16:35:21.263Z,5.27
2022-12-25T16:37:49.573Z,15.20
2022-12-25T16:40:17.989Z,7.03
2022-12-25T16:42:46.169Z,5.83
2022-12-25T16:45:15.149Z,7.10
2022-12-25T16:47:43.304Z,6.00
2022-12-25T16:50:12.440Z,6.03
2022-12-25T16:52:41.963Z,6.33
2022-12-25T16:55:11.208Z,6.17
2022-12-25T16:57:39.334Z,5.33
2022-12-25T17:00:09.463Z,5.20
2022-12-25T17:02:37.850Z,5.80
2022-12-25T17:05:06.838Z,5.87
2022-12-25T17:07:37.540Z,5.63
2022-12-25T17:10:09.663Z,5.20
2022-12-25T17:12:37.787Z,5.63
2022-12-25T17:15:08.160Z,5.53
2022-12-25T17:17:37.044Z,5.57
2022-12-25T17:20:07.608Z,5.20
2022-12-25T17:22:36.460Z,5.20
2022-12-25T17:25:07.045Z,6.20
2022-12-25T17:27:35.452Z,5.80
2022-12-25T17:30:04.487Z,6.03
2022-12-25T17:32:32.695Z,5.37
2022-12-25T17:35:03.070Z,4.70
2022-12-25T17:37:32.020Z,5.30
2022-12-25T17:40:00.432Z,7.10
2022-12-25T17:42:30.194Z,6.07
2022-12-25T17:44:58.647Z,6.50
2022-12-25T17:47:28.018Z,6.33
2022-12-25T17:49:56.795Z,5.43
2022-12-25T17:52:25.497Z,6.43
2022-12-25T17:54:53.774Z,6.30
2022-12-25T17:57:22.062Z,4.77
2022-12-25T17:59:51.637Z,4.93
2022-12-25T18:02:21.064Z,3.90
2022-12-25T18:04:53.624Z,7.80
2022-12-25T18:07:21.873Z,4.93
2022-12-25T18:09:50.299Z,5.27
2022-12-25T18:12:18.805Z,4.87
2022-12-25T18:14:46.892Z,4.87
2022-12-25T18:17:16.385Z,5.20
2022-12-25T18:19:45.932Z,4.90
2022-12-25T18:22:14.479Z,4.10
2022-12-25T18:24:42.841Z,4.00
2022-12-25T18:27:10.908Z,4.27
2022-12-25T18:29:38.952Z,4.90
2022-12-25T18:32:07.523Z,5.90
2022-12-25T18:34:37.150Z,7.40
2022-12-25T18:37:05.484Z,9.17
2022-12-25T18:39:34.459Z,5.27
2022-12-25T18:42:20.789Z,4.43
2022-12-25T18:44:48.849Z,4.23
2022-12-25T18:47:16.913Z,4.97
2022-12-25T18:49:46.591Z,5.20
2022-12-25T18:52:47.613Z,4.90
2022-12-25T18:55:02.730Z,19.57
2022-12-25T18:57:32.650Z,7.13
2022-12-25T19:00:00.975Z,5.57
2022-12-25T19:02:29.896Z,4.60
2022-12-25T19:04:59.574Z,5.93
2022-12-25T19:07:27.753Z,4.20
2022-12-25T19:09:55.911Z,5.00
2022-12-25T19:12:24.731Z,5.53
2022-12-25T19:14:53.199Z,6.57
2022-12-25T19:17:24.323Z,5.00
2022-12-25T19:19:55.809Z,6.50
2022-12-25T19:22:25.300Z,6.70
2022-12-25T19:24:53.499Z,4.63
2022-12-25T19:27:21.603Z,4.77
2022-12-25T19:29:49.778Z,4.77
2022-12-25T19:32:18.215Z,4.57
2022-12-25T19:34:46.277Z,4.90
2022-12-25T19:37:15.470Z,3.90
2022-12-25T19:39:46.779Z,5.70
2022-12-25T19:42:16.248Z,4.80
2022-12-25T19:44:45.477Z,6.40
2022-12-25T19:47:13.744Z,6.03
2022-12-25T19:49:43.974Z,5.53
2022-12-25T19:52:14.440Z,4.70
2022-12-25T19:54:44.602Z,5.40
2022-12-25T19:57:12.898Z,5.60
2022-12-25T19:59:41.458Z,4.83
2022-12-25T20:02:11.305Z,4.50
2022-12-25T20:04:39.725Z,4.33
2022-12-25T20:07:07.936Z,7.23
2022-12-25T20:09:36.248Z,7.40
2022-12-25T20:12:06.316Z,5.70
2022-12-25T20:14:37.083Z,5.40
2022-12-25T20:17:08.270Z,4.30
2022-12-25T20:19:39.014Z,4.40
2022-12-25T20:22:07.097Z,5.60
2022-12-25T20:24:35.329Z,4.63
2022-12-25T20:27:05.090Z,4.60
2022-12-25T20:29:33.353Z,4.20
2022-12-25T20:32:01.710Z,4.00
2022-12-25T20:34:32.254Z,4.13
2022-12-25T20:37:00.360Z,4.70
2022-12-25T20:39:28.427Z,4.30
2022-12-25T20:41:56.780Z,5.17
2022-12-25T20:44:26.255Z,5.30
2022-12-25T20:46:56.444Z,4.63
2022-12-25T20:49:24.472Z,4.60
2022-12-25T20:51:52.417Z,4.00
2022-12-25T20:54:20.398Z,6.10
2022-12-25T20:56:49.966Z,5.60
2022-12-25T20:59:18.255Z,4.83
2022-12-25T21:01:47.754Z,4.87
2022-12-25T21:04:16.757Z,5.47
2022-12-25T21:06:44.848Z,5.60
2022-12-25T21:09:12.938Z,4.67
2022-12-25T21:11:41.082Z,5.17
2022-12-25T21:14:09.608Z,3.70
2022-12-25T21:16:37.623Z,5.10
2022-12-25T21:19:07.055Z,6.43
2022-12-25T21:21:35.880Z,5.00
2022-12-25T21:24:04.088Z,7.20
2022-12-25T21:26:32.416Z,4.90
2022-12-25T21:29:05.145Z,4.30
2022-12-25T21:31:55.154Z,4.60
2022-12-25T21:34:23.789Z,3.70
2022-12-25T21:36:51.943Z,4.20
2022-12-25T21:39:20.048Z,8.30
2022-12-25T21:41:49.103Z,5.50
2022-12-25T21:44:17.112Z,4.13
2022-12-25T21:46:45.214Z,5.47
2022-12-25T21:49:33.242Z,3.90
2022-12-25T21:52:07.654Z,4.07
2022-12-25T21:54:36.600Z,4.27
2022-12-25T21:57:04.991Z,4.27
2022-12-25T21:59:33.137Z,5.03
2022-12-25T22:02:01.377Z,4.27
2022-12-25T22:04:29.562Z,4.33
2022-12-25T22:07:15.004Z,6.70
2022-12-25T22:09:46.752Z,4.43
2022-12-25T22:12:34.630Z,4.10
2022-12-25T22:15:06.277Z,10.30
2022-12-25T22:17:55.234Z,8.93
2022-12-25T22:20:26.312Z,4.80
2022-12-25T22:22:54.794Z,4.80
2022-12-25T22:25:25.317Z,4.33
2022-12-25T22:27:54.026Z,3.83
2022-12-25T22:30:25.604Z,3.70
2022-12-25T22:32:54.059Z,3.67
2022-12-25T22:35:22.815Z,4.70
2022-12-25T22:37:51.258Z,4.20
2022-12-25T22:40:25.768Z,3.53
2022-12-25T22:42:57.225Z,4.50
2022-12-25T22:45:26.080Z,6.43
2022-12-25T22:47:54.300Z,5.20
2022-12-25T22:50:22.531Z,4.40
2022-12-25T22:52:50.875Z,4.30
2022-12-25T22:55:20.126Z,5.07
2022-12-25T22:57:49.957Z,3.60
2022-12-25T23:00:18.035Z,3.97
2022-12-25T23:02:46.220Z,3.50
2022-12-25T23:05:14.641Z,3.80
2022-12-25T23:07:42.846Z,4.20
2022-12-25T23:10:13.069Z,3.70
2022-12-25T23:12:58.713Z,4.47
2022-12-25T23:15:28.872Z,4.60
2022-12-25T23:18:14.878Z,4.17
2022-12-25T23:21:00.432Z,3.40
2022-12-25T23:23:46.820Z,5.03
2022-12-25T23:26:17.466Z,4.43
2022-12-25T23:29:02.993Z,4.70
2022-12-25T23:31:34.695Z,4.37
2022-12-25T23:34:04.783Z,3.40
2022-12-25T23:36:33.104Z,3.60
2022-12-25T23:39:08.968Z,3.77
2022-12-25T23:41:38.702Z,4.43
2022-12-25T23:44:07.539Z,4.43
2022-12-25T23:46:37.406Z,4.43
2022-12-25T23:49:06.027Z,3.73
2022-12-25T23:51:36.472Z,3.70
2022-12-25T23:54:07.370Z,3.77
2022-12-25T23:56:35.505Z,3.60
2022-12-25T23:59:03.535Z,4.40
